PWSweather.com
Personal Weather Stations
Station Observations
NAGEO265NE
Bedzin GrodziecPL 42-506

Bedzin GrodziecPL 42-506

Lat: 50.347, Lon: 19.079

Elevation: 948

Station Type: WH1080

http://www.meteo-grodziec.pl/

High Low Average
Temperature 41.0°F5.0°C 32.5°F0.3°C 37.0°F2.8°C
Dew Point 39.9°F4.4°C 30.7°F-0.7°C 35.3°F1.8°C
Winds 8.0 mph 12.9 kmh 1.0 mph 1.6 kmh 4.0 mph WSW6.4 kmh WSW
Wind Gusts 22.0 mph35.4 kmh 3.0 mph4.8 kmh 11.0 mph17.7 kmh
Humidity 97% 87% 93%
Pressure 30.40 in1029.5 mb 29.79 in1008.8 mb -
Precipitation 0.13 in3.3 mm - -
Hour Temp Dew Point Humidity Winds Wind Gusts Pressure Precip Precip Rate Daily Precip Total
12:00 AM 33.8°F1.0°C 31.5°F-0.3°C 91% 1.0 mph SW1.6 kmh SW 6.0 mph9.7 kmh 30.40 in1029.5 mb 0.00 in0.0 mm 0.00 in0.0 mm 0.00 in0.0 mm
12:05 AM 33.8°F1.0°C 31.5°F-0.3°C 91% 1.0 mph SW1.6 kmh SW 6.0 mph9.7 kmh 30.39 in1029.1 mb 0.00 in0.0 mm 0.00 in0.0 mm 0.00 in0.0 mm
12:10 AM 33.8°F1.0°C 31.5°F-0.3°C 91% 1.0 mph SW1.6 kmh SW 4.0 mph6.4 kmh 30.39 in1029.1 mb 0.00 in0.0 mm 0.00 in0.0 mm 0.00 in0.0 mm
12:15 AM 33.8°F1.0°C 31.1°F-0.5°C 90% 2.0 mph SW3.2 kmh SW 4.0 mph6.4 kmh 30.39 in1029.1 mb 0.00 in0.0 mm 0.00 in0.0 mm 0.00 in0.0 mm
12:20 AM 33.8°F1.0°C 31.1°F-0.5°C 90% 2.0 mph SW3.2 kmh SW 4.0 mph6.4 kmh 30.39 in1029.1 mb 0.00 in0.0 mm 0.00 in0.0 mm 0.00 in0.0 mm
12:25 AM 34.0°F1.1°C 31.3°F-0.4°C 90% 1.0 mph SW1.6 kmh SW 4.0 mph6.4 kmh 30.39 in1029.1 mb 0.00 in0.0 mm 0.00 in0.0 mm 0.00 in0.0 mm
12:30 AM 34.0°F1.1°C 31.3°F-0.4°C 90% 2.0 mph SW3.2 kmh SW 6.0 mph9.7 kmh 30.39 in1029.1 mb 0.00 in0.0 mm 0.00 in0.0 mm 0.00 in0.0 mm
12:35 AM 34.0°F1.1°C 31.3°F-0.4°C 90% 2.0 mph SW3.2 kmh SW 6.0 mph9.7 kmh 30.39 in1029.1 mb 0.00 in0.0 mm 0.00 in0.0 mm 0.00 in0.0 mm
12:40 AM 34.0°F1.1°C 31.3°F-0.4°C 90% 2.0 mph SW3.2 kmh SW 5.0 mph8.0 kmh 30.39 in1029.1 mb 0.00 in0.0 mm 0.00 in0.0 mm 0.00 in0.0 mm
12:45 AM 34.0°F1.1°C 31.3°F-0.4°C 90% 2.0 mph SW3.2 kmh SW 5.0 mph8.0 kmh 30.39 in1029.1 mb 0.00 in0.0 mm 0.00 in0.0 mm 0.00 in0.0 mm
12:50 AM 34.0°F1.1°C 31.3°F-0.4°C 90% 2.0 mph SW3.2 kmh SW 5.0 mph8.0 kmh 30.39 in1029.1 mb 0.00 in0.0 mm 0.00 in0.0 mm 0.00 in0.0 mm
12:55 AM 34.0°F1.1°C 31.3°F-0.4°C 90% 2.0 mph SW3.2 kmh SW 4.0 mph6.4 kmh 30.38 in1028.8 mb 0.00 in0.0 mm 0.00 in0.0 mm 0.00 in0.0 mm
01:00 AM 34.0°F1.1°C 31.3°F-0.4°C 90% 2.0 mph SW3.2 kmh SW 6.0 mph9.7 kmh 30.38 in1028.8 mb 0.00 in0.0 mm 0.00 in0.0 mm 0.00 in0.0 mm
01:05 AM 34.0°F1.1°C 31.6°F-0.2°C 91% 2.0 mph SW3.2 kmh SW 6.0 mph9.7 kmh 30.38 in1028.8 mb 0.00 in0.0 mm 0.00 in0.0 mm 0.00 in0.0 mm
01:10 AM 34.0°F1.1°C 31.6°F-0.2°C 91% 1.0 mph SW1.6 kmh SW 4.0 mph6.4 kmh 30.38 in1028.8 mb 0.00 in0.0 mm 0.00 in0.0 mm 0.00 in0.0 mm
01:15 AM 34.0°F1.1°C 31.6°F-0.2°C 91% 2.0 mph SW3.2 kmh SW 6.0 mph9.7 kmh 30.38 in1028.8 mb 0.00 in0.0 mm 0.00 in0.0 mm 0.00 in0.0 mm
01:20 AM 34.0°F1.1°C 31.6°F-0.2°C 91% 3.0 mph SW4.8 kmh SW 6.0 mph9.7 kmh 30.38 in1028.8 mb 0.00 in0.0 mm 0.00 in0.0 mm 0.00 in0.0 mm
01:25 AM 34.0°F1.1°C 31.6°F-0.2°C 91% 2.0 mph SW3.2 kmh SW 6.0 mph9.7 kmh 30.38 in1028.8 mb 0.00 in0.0 mm 0.00 in0.0 mm 0.00 in0.0 mm
01:30 AM 34.0°F1.1°C 31.6°F-0.2°C 91% 2.0 mph SW3.2 kmh SW 8.0 mph12.9 kmh 30.38 in1028.8 mb 0.00 in0.0 mm 0.00 in0.0 mm 0.00 in0.0 mm
01:35 AM 34.0°F1.1°C 31.6°F-0.2°C 91% 2.0 mph SW3.2 kmh SW 8.0 mph12.9 kmh 30.38 in1028.8 mb 0.00 in0.0 mm 0.00 in0.0 mm 0.00 in0.0 mm
01:40 AM 34.0°F1.1°C 31.6°F-0.2°C 91% 2.0 mph SW3.2 kmh SW 8.0 mph12.9 kmh 30.37 in1028.4 mb 0.00 in0.0 mm 0.00 in0.0 mm 0.00 in0.0 mm
01:45 AM 34.0°F1.1°C 31.6°F-0.2°C 91% 2.0 mph SW3.2 kmh SW 8.0 mph12.9 kmh 30.37 in1028.4 mb 0.00 in0.0 mm 0.00 in0.0 mm 0.00 in0.0 mm
01:50 AM 33.8°F1.0°C 31.5°F-0.3°C 91% 2.0 mph SW3.2 kmh SW 5.0 mph8.0 kmh 30.37 in1028.4 mb 0.00 in0.0 mm 0.00 in0.0 mm 0.00 in0.0 mm
01:55 AM 33.8°F1.0°C 31.5°F-0.3°C 91% 2.0 mph SW3.2 kmh SW 5.0 mph8.0 kmh 30.37 in1028.4 mb 0.00 in0.0 mm 0.00 in0.0 mm 0.00 in0.0 mm
02:00 AM 33.6°F0.9°C 31.3°F-0.4°C 91% 2.0 mph SW3.2 kmh SW 4.0 mph6.4 kmh 30.37 in1028.4 mb 0.00 in0.0 mm 0.00 in0.0 mm 0.00 in0.0 mm
02:05 AM 33.6°F0.9°C 31.3°F-0.4°C 91% 2.0 mph SW3.2 kmh SW 5.0 mph8.0 kmh 30.37 in1028.4 mb 0.00 in0.0 mm 0.00 in0.0 mm 0.00 in0.0 mm
02:10 AM 33.6°F0.9°C 31.6°F-0.2°C 92% 2.0 mph SW3.2 kmh SW 5.0 mph8.0 kmh 30.37 in1028.4 mb 0.00 in0.0 mm 0.00 in0.0 mm 0.00 in0.0 mm
02:15 AM 33.6°F0.9°C 31.6°F-0.2°C 92% 2.0 mph SW3.2 kmh SW 5.0 mph8.0 kmh 30.37 in1028.4 mb 0.00 in0.0 mm 0.00 in0.0 mm 0.00 in0.0 mm
02:20 AM 33.6°F0.9°C 31.5°F-0.3°C 92% 2.0 mph SW3.2 kmh SW 5.0 mph8.0 kmh 30.36 in1028.1 mb 0.00 in0.0 mm 0.00 in0.0 mm 0.00 in0.0 mm
02:25 AM 33.4°F0.8°C 31.5°F-0.3°C 92% 2.0 mph SW3.2 kmh SW 6.0 mph9.7 kmh 30.36 in1028.1 mb 0.00 in0.0 mm 0.00 in0.0 mm 0.00 in0.0 mm
02:30 AM 33.4°F0.8°C 31.5°F-0.3°C 92% 2.0 mph SW3.2 kmh SW 6.0 mph9.7 kmh 30.35 in1027.8 mb 0.00 in0.0 mm 0.00 in0.0 mm 0.00 in0.0 mm
02:35 AM 33.4°F0.8°C 31.3°F-0.4°C 92% 2.0 mph SW3.2 kmh SW 7.0 mph11.3 kmh 30.35 in1027.8 mb 0.00 in0.0 mm 0.00 in0.0 mm 0.00 in0.0 mm
02:40 AM 33.3°F0.7°C 31.1°F-0.5°C 92% 2.0 mph SW3.2 kmh SW 7.0 mph11.3 kmh 30.35 in1027.8 mb 0.00 in0.0 mm 0.00 in0.0 mm 0.00 in0.0 mm
02:45 AM 33.3°F0.7°C 31.1°F-0.5°C 92% 2.0 mph SW3.2 kmh SW 6.0 mph9.7 kmh 30.35 in1027.8 mb 0.00 in0.0 mm 0.00 in0.0 mm 0.00 in0.0 mm
02:50 AM 33.1°F0.6°C 31.1°F-0.5°C 92% 2.0 mph SW3.2 kmh SW 6.0 mph9.7 kmh 30.35 in1027.8 mb 0.00 in0.0 mm 0.00 in0.0 mm 0.00 in0.0 mm
02:55 AM 33.1°F0.6°C 30.9°F-0.6°C 92% 2.0 mph SW3.2 kmh SW 5.0 mph8.0 kmh 30.34 in1027.4 mb 0.00 in0.0 mm 0.00 in0.0 mm 0.00 in0.0 mm
03:00 AM 32.9°F0.5°C 31.1°F-0.5°C 93% 2.0 mph SW3.2 kmh SW 5.0 mph8.0 kmh 30.34 in1027.4 mb 0.00 in0.0 mm 0.00 in0.0 mm 0.00 in0.0 mm
03:05 AM 32.7°F0.4°C 30.9°F-0.6°C 93% 1.0 mph SW1.6 kmh SW 4.0 mph6.4 kmh 30.34 in1027.4 mb 0.00 in0.0 mm 0.00 in0.0 mm 0.00 in0.0 mm
03:10 AM 32.7°F0.4°C 30.9°F-0.6°C 93% 1.0 mph SW1.6 kmh SW 4.0 mph6.4 kmh 30.33 in1027.1 mb 0.00 in0.0 mm 0.00 in0.0 mm 0.00 in0.0 mm
03:15 AM 32.5°F0.3°C 30.7°F-0.7°C 93% 1.0 mph SW1.6 kmh SW 3.0 mph4.8 kmh 30.33 in1027.1 mb 0.00 in0.0 mm 0.00 in0.0 mm 0.00 in0.0 mm
03:20 AM 32.5°F0.3°C 30.7°F-0.7°C 93% 1.0 mph SW1.6 kmh SW 4.0 mph6.4 kmh 30.32 in1026.8 mb 0.00 in0.0 mm 0.00 in0.0 mm 0.00 in0.0 mm
03:25 AM 32.5°F0.3°C 30.7°F-0.7°C 93% 2.0 mph SW3.2 kmh SW 5.0 mph8.0 kmh 30.32 in1026.8 mb 0.00 in0.0 mm 0.00 in0.0 mm 0.00 in0.0 mm
03:30 AM 32.7°F0.4°C 30.9°F-0.6°C 93% 2.0 mph SW3.2 kmh SW 5.0 mph8.0 kmh 30.32 in1026.8 mb 0.00 in0.0 mm 0.00 in0.0 mm 0.00 in0.0 mm
03:35 AM 32.7°F0.4°C 30.9°F-0.6°C 93% 2.0 mph SW3.2 kmh SW 7.0 mph11.3 kmh 30.32 in1026.8 mb 0.00 in0.0 mm 0.00 in0.0 mm 0.00 in0.0 mm
03:40 AM 32.7°F0.4°C 30.9°F-0.6°C 93% 2.0 mph SW3.2 kmh SW 7.0 mph11.3 kmh 30.31 in1026.4 mb 0.00 in0.0 mm 0.00 in0.0 mm 0.00 in0.0 mm
03:45 AM 32.7°F0.4°C 30.9°F-0.6°C 93% 1.0 mph SW1.6 kmh SW 6.0 mph9.7 kmh 30.31 in1026.4 mb 0.00 in0.0 mm 0.00 in0.0 mm 0.00 in0.0 mm
03:50 AM 32.9°F0.5°C 31.1°F-0.5°C 93% 2.0 mph SW3.2 kmh SW 6.0 mph9.7 kmh 30.30 in1026.1 mb 0.00 in0.0 mm 0.00 in0.0 mm 0.00 in0.0 mm
03:55 AM 32.9°F0.5°C 31.1°F-0.5°C 93% 2.0 mph SW3.2 kmh SW 6.0 mph9.7 kmh 30.30 in1026.1 mb 0.00 in0.0 mm 0.00 in0.0 mm 0.00 in0.0 mm
04:00 AM 33.1°F0.6°C 31.3°F-0.4°C 93% 2.0 mph SW3.2 kmh SW 7.0 mph11.3 kmh 30.29 in1025.7 mb 0.00 in0.0 mm 0.00 in0.0 mm 0.00 in0.0 mm
04:05 AM 33.3°F0.7°C 31.5°F-0.3°C 93% 2.0 mph SW3.2 kmh SW 7.0 mph11.3 kmh 30.29 in1025.7 mb 0.00 in0.0 mm 0.00 in0.0 mm 0.00 in0.0 mm
04:10 AM 33.3°F0.7°C 31.5°F-0.3°C 93% 3.0 mph SW4.8 kmh SW 6.0 mph9.7 kmh 30.29 in1025.7 mb 0.00 in0.0 mm 0.00 in0.0 mm 0.00 in0.0 mm
04:15 AM 33.4°F0.8°C 31.5°F-0.3°C 92% 3.0 mph SW4.8 kmh SW 6.0 mph9.7 kmh 30.29 in1025.7 mb 0.00 in0.0 mm 0.00 in0.0 mm 0.00 in0.0 mm
04:20 AM 33.6°F0.9°C 31.5°F-0.3°C 92% 3.0 mph SW4.8 kmh SW 7.0 mph11.3 kmh 30.28 in1025.4 mb 0.00 in0.0 mm 0.00 in0.0 mm 0.00 in0.0 mm
04:25 AM 33.6°F0.9°C 31.5°F-0.3°C 92% 2.0 mph SW3.2 kmh SW 7.0 mph11.3 kmh 30.28 in1025.4 mb 0.00 in0.0 mm 0.00 in0.0 mm 0.00 in0.0 mm
04:30 AM 33.6°F0.9°C 31.6°F-0.2°C 92% 2.0 mph SW3.2 kmh SW 6.0 mph9.7 kmh 30.28 in1025.4 mb 0.00 in0.0 mm 0.00 in0.0 mm 0.00 in0.0 mm
04:35 AM 33.8°F1.0°C 31.6°F-0.2°C 92% 3.0 mph SW4.8 kmh SW 7.0 mph11.3 kmh 30.27 in1025.1 mb 0.00 in0.0 mm 0.00 in0.0 mm 0.00 in0.0 mm
04:40 AM 33.8°F1.0°C 31.6°F-0.2°C 92% 2.0 mph SW3.2 kmh SW 7.0 mph11.3 kmh 30.27 in1025.1 mb 0.00 in0.0 mm 0.00 in0.0 mm 0.00 in0.0 mm
04:45 AM 34.0°F1.1°C 31.8°F-0.1°C 92% 3.0 mph SW4.8 kmh SW 6.0 mph9.7 kmh 30.27 in1025.1 mb 0.00 in0.0 mm 0.00 in0.0 mm 0.00 in0.0 mm
04:50 AM 34.0°F1.1°C 32.0°F0.0°C 92% 4.0 mph SW6.4 kmh SW 9.0 mph14.5 kmh 30.26 in1024.7 mb 0.00 in0.0 mm 0.00 in0.0 mm 0.00 in0.0 mm
04:55 AM 34.0°F1.1°C 31.6°F-0.2°C 91% 4.0 mph SW6.4 kmh SW 9.0 mph14.5 kmh 30.25 in1024.4 mb 0.00 in0.0 mm 0.00 in0.0 mm 0.00 in0.0 mm
05:00 AM 34.2°F1.2°C 31.8°F-0.1°C 91% 3.0 mph SW4.8 kmh SW 7.0 mph11.3 kmh 30.25 in1024.4 mb 0.00 in0.0 mm 0.00 in0.0 mm 0.00 in0.0 mm
05:05 AM 34.2°F1.2°C 31.8°F-0.1°C 91% 4.0 mph SW6.4 kmh SW 9.0 mph14.5 kmh 30.24 in1024.0 mb 0.00 in0.0 mm 0.00 in0.0 mm 0.00 in0.0 mm
05:10 AM 34.2°F1.2°C 31.8°F-0.1°C 91% 4.0 mph SW6.4 kmh SW 9.0 mph14.5 kmh 30.24 in1024.0 mb 0.00 in0.0 mm 0.00 in0.0 mm 0.00 in0.0 mm
05:15 AM 34.2°F1.2°C 31.8°F-0.1°C 91% 4.0 mph SW6.4 kmh SW 11.0 mph17.7 kmh 30.24 in1024.0 mb 0.00 in0.0 mm 0.00 in0.0 mm 0.00 in0.0 mm
05:20 AM 34.2°F1.2°C 31.8°F-0.1°C 91% 3.0 mph SW4.8 kmh SW 11.0 mph17.7 kmh 30.24 in1024.0 mb 0.00 in0.0 mm 0.00 in0.0 mm 0.00 in0.0 mm
05:25 AM 34.2°F1.2°C 31.8°F-0.1°C 91% 3.0 mph SW4.8 kmh SW 10.0 mph16.1 kmh 30.24 in1024.0 mb 0.00 in0.0 mm 0.00 in0.0 mm 0.00 in0.0 mm
05:30 AM 34.2°F1.2°C 31.8°F-0.1°C 91% 3.0 mph SW4.8 kmh SW 6.0 mph9.7 kmh 30.24 in1024.0 mb 0.00 in0.0 mm 0.00 in0.0 mm 0.00 in0.0 mm
05:35 AM 34.2°F1.2°C 31.8°F-0.1°C 91% 3.0 mph SW4.8 kmh SW 6.0 mph9.7 kmh 30.24 in1024.0 mb 0.00 in0.0 mm 0.00 in0.0 mm 0.00 in0.0 mm
05:40 AM 34.2°F1.2°C 31.8°F-0.1°C 91% 3.0 mph SW4.8 kmh SW 6.0 mph9.7 kmh 30.24 in1024.0 mb 0.00 in0.0 mm 0.00 in0.0 mm 0.00 in0.0 mm
05:45 AM 34.3°F1.3°C 32.0°F0.0°C 91% 2.0 mph SW3.2 kmh SW 6.0 mph9.7 kmh 30.23 in1023.7 mb 0.00 in0.0 mm 0.00 in0.0 mm 0.00 in0.0 mm
05:50 AM 34.3°F1.3°C 32.0°F0.0°C 91% 2.0 mph SW3.2 kmh SW 7.0 mph11.3 kmh 30.23 in1023.7 mb 0.00 in0.0 mm 0.00 in0.0 mm 0.00 in0.0 mm
05:55 AM 34.3°F1.3°C 32.0°F0.0°C 91% 2.0 mph SW3.2 kmh SW 7.0 mph11.3 kmh 30.23 in1023.7 mb 0.00 in0.0 mm 0.00 in0.0 mm 0.00 in0.0 mm
06:00 AM 34.3°F1.3°C 32.0°F0.0°C 91% 2.0 mph SW3.2 kmh SW 8.0 mph12.9 kmh 30.23 in1023.7 mb 0.00 in0.0 mm 0.00 in0.0 mm 0.00 in0.0 mm
06:05 AM 34.5°F1.4°C 32.2°F0.1°C 91% 3.0 mph SW4.8 kmh SW 8.0 mph12.9 kmh 30.23 in1023.7 mb 0.00 in0.0 mm 0.00 in0.0 mm 0.00 in0.0 mm
06:10 AM 34.5°F1.4°C 32.2°F0.1°C 91% 3.0 mph SW4.8 kmh SW 8.0 mph12.9 kmh 30.23 in1023.7 mb 0.00 in0.0 mm 0.00 in0.0 mm 0.00 in0.0 mm
06:15 AM 34.5°F1.4°C 32.2°F0.1°C 91% 3.0 mph SW4.8 kmh SW 10.0 mph16.1 kmh 30.23 in1023.7 mb 0.00 in0.0 mm 0.00 in0.0 mm 0.00 in0.0 mm
06:20 AM 34.7°F1.5°C 32.4°F0.2°C 91% 3.0 mph SW4.8 kmh SW 10.0 mph16.1 kmh 30.23 in1023.7 mb 0.00 in0.0 mm 0.00 in0.0 mm 0.00 in0.0 mm
06:25 AM 34.9°F1.6°C 32.4°F0.2°C 91% 3.0 mph SW4.8 kmh SW 9.0 mph14.5 kmh 30.22 in1023.4 mb 0.00 in0.0 mm 0.00 in0.0 mm 0.00 in0.0 mm
06:30 AM 34.9°F1.6°C 32.5°F0.3°C 91% 4.0 mph SW6.4 kmh SW 12.0 mph19.3 kmh 30.22 in1023.4 mb 0.00 in0.0 mm 0.00 in0.0 mm 0.00 in0.0 mm
06:35 AM 34.9°F1.6°C 32.5°F0.3°C 91% 5.0 mph SW8.0 kmh SW 12.0 mph19.3 kmh 30.22 in1023.4 mb 0.00 in0.0 mm 0.00 in0.0 mm 0.00 in0.0 mm
06:40 AM 35.1°F1.7°C 32.7°F0.4°C 91% 4.0 mph SW6.4 kmh SW 11.0 mph17.7 kmh 30.22 in1023.4 mb 0.00 in0.0 mm 0.00 in0.0 mm 0.00 in0.0 mm
06:45 AM 35.1°F1.7°C 32.7°F0.4°C 91% 4.0 mph SW6.4 kmh SW 11.0 mph17.7 kmh 30.21 in1023.0 mb 0.00 in0.0 mm 0.00 in0.0 mm 0.00 in0.0 mm
06:50 AM 35.1°F1.7°C 33.1°F0.6°C 92% 5.0 mph SW8.0 kmh SW 10.0 mph16.1 kmh 30.21 in1023.0 mb 0.00 in0.0 mm 0.00 in0.0 mm 0.00 in0.0 mm
06:55 AM 35.1°F1.7°C 33.1°F0.6°C 92% 5.0 mph SW8.0 kmh SW 10.0 mph16.1 kmh 30.21 in1023.0 mb 0.00 in0.0 mm 0.00 in0.0 mm 0.00 in0.0 mm
07:00 AM 35.2°F1.8°C 33.1°F0.6°C 92% 5.0 mph SW8.0 kmh SW 10.0 mph16.1 kmh 30.21 in1023.0 mb 0.00 in0.0 mm 0.00 in0.0 mm 0.00 in0.0 mm
07:05 AM 35.1°F1.7°C 33.1°F0.6°C 92% 4.0 mph SW6.4 kmh SW 9.0 mph14.5 kmh 30.21 in1023.0 mb 0.00 in0.0 mm 0.00 in0.0 mm 0.00 in0.0 mm
07:10 AM 35.2°F1.8°C 33.1°F0.6°C 92% 3.0 mph SW4.8 kmh SW 12.0 mph19.3 kmh 30.20 in1022.7 mb 0.00 in0.0 mm 0.00 in0.0 mm 0.00 in0.0 mm
07:15 AM 35.2°F1.8°C 33.3°F0.7°C 92% 4.0 mph SW6.4 kmh SW 12.0 mph19.3 kmh 30.20 in1022.7 mb 0.00 in0.0 mm 0.00 in0.0 mm 0.00 in0.0 mm
07:20 AM 35.2°F1.8°C 33.3°F0.7°C 92% 4.0 mph SW6.4 kmh SW 10.0 mph16.1 kmh 30.20 in1022.7 mb 0.00 in0.0 mm 0.00 in0.0 mm 0.00 in0.0 mm
07:25 AM 35.2°F1.8°C 33.3°F0.7°C 92% 4.0 mph SW6.4 kmh SW 8.0 mph12.9 kmh 30.20 in1022.7 mb 0.00 in0.0 mm 0.00 in0.0 mm 0.00 in0.0 mm
07:30 AM 35.2°F1.8°C 33.3°F0.7°C 92% 4.0 mph SW6.4 kmh SW 9.0 mph14.5 kmh 30.20 in1022.7 mb 0.00 in0.0 mm 0.00 in0.0 mm 0.00 in0.0 mm
07:35 AM 35.2°F1.8°C 33.4°F0.8°C 93% 3.0 mph SW4.8 kmh SW 9.0 mph14.5 kmh 30.19 in1022.4 mb 0.00 in0.0 mm 0.00 in0.0 mm 0.00 in0.0 mm
07:40 AM 35.2°F1.8°C 33.4°F0.8°C 93% 3.0 mph SW4.8 kmh SW 8.0 mph12.9 kmh 30.19 in1022.4 mb 0.00 in0.0 mm 0.00 in0.0 mm 0.00 in0.0 mm
07:45 AM 35.2°F1.8°C 33.6°F0.9°C 94% 3.0 mph SW4.8 kmh SW 9.0 mph14.5 kmh 30.19 in1022.4 mb 0.00 in0.0 mm 0.00 in0.0 mm 0.00 in0.0 mm
07:50 AM 35.2°F1.8°C 33.6°F0.9°C 94% 3.0 mph SW4.8 kmh SW 9.0 mph14.5 kmh 30.19 in1022.4 mb 0.00 in0.0 mm 0.00 in0.0 mm 0.00 in0.0 mm
07:55 AM 35.2°F1.8°C 33.6°F0.9°C 94% 3.0 mph SW4.8 kmh SW 10.0 mph16.1 kmh 30.18 in1022.0 mb 0.01 in0.3 mm 0.12 in3.0 mm 0.01 in0.3 mm
08:00 AM 35.2°F1.8°C 33.8°F1.0°C 94% 3.0 mph SW4.8 kmh SW 10.0 mph16.1 kmh 30.18 in1022.0 mb 0.01 in0.3 mm 0.00 in0.0 mm 0.01 in0.3 mm
08:05 AM 35.2°F1.8°C 34.0°F1.1°C 95% 3.0 mph SW4.8 kmh SW 7.0 mph11.3 kmh 30.18 in1022.0 mb 0.01 in0.3 mm 0.00 in0.0 mm 0.01 in0.3 mm
08:10 AM 35.2°F1.8°C 34.0°F1.1°C 95% 2.0 mph SW3.2 kmh SW 7.0 mph11.3 kmh 30.18 in1022.0 mb 0.01 in0.3 mm 0.00 in0.0 mm 0.01 in0.3 mm
08:15 AM 35.2°F1.8°C 34.0°F1.1°C 95% 2.0 mph SW3.2 kmh SW 7.0 mph11.3 kmh 30.18 in1022.0 mb 0.01 in0.3 mm 0.00 in0.0 mm 0.01 in0.3 mm
08:20 AM 35.2°F1.8°C 34.0°F1.1°C 95% 3.0 mph SW4.8 kmh SW 8.0 mph12.9 kmh 30.17 in1021.7 mb 0.01 in0.3 mm 0.00 in0.0 mm 0.01 in0.3 mm
08:25 AM 35.4°F1.9°C 34.2°F1.2°C 95% 3.0 mph SW4.8 kmh SW 8.0 mph12.9 kmh 30.17 in1021.7 mb 0.01 in0.3 mm 0.00 in0.0 mm 0.01 in0.3 mm
08:30 AM 35.4°F1.9°C 34.2°F1.2°C 95% 4.0 mph SW6.4 kmh SW 10.0 mph16.1 kmh 30.16 in1021.3 mb 0.01 in0.3 mm 0.00 in0.0 mm 0.01 in0.3 mm
08:35 AM 35.4°F1.9°C 34.5°F1.4°C 96% 4.0 mph SW6.4 kmh SW 10.0 mph16.1 kmh 30.16 in1021.3 mb 0.01 in0.3 mm 0.00 in0.0 mm 0.01 in0.3 mm
08:40 AM 35.4°F1.9°C 34.5°F1.4°C 96% 3.0 mph SW4.8 kmh SW 10.0 mph16.1 kmh 30.16 in1021.3 mb 0.01 in0.3 mm 0.00 in0.0 mm 0.01 in0.3 mm
08:45 AM 35.6°F2.0°C 34.5°F1.4°C 96% 4.0 mph SW6.4 kmh SW 12.0 mph19.3 kmh 30.16 in1021.3 mb 0.01 in0.3 mm 0.00 in0.0 mm 0.01 in0.3 mm
08:50 AM 35.8°F2.1°C 34.7°F1.5°C 96% 5.0 mph SW8.0 kmh SW 12.0 mph19.3 kmh 30.16 in1021.3 mb 0.01 in0.3 mm 0.00 in0.0 mm 0.01 in0.3 mm
08:55 AM 35.8°F2.1°C 34.7°F1.5°C 96% 4.0 mph SW6.4 kmh SW 11.0 mph17.7 kmh 30.15 in1021.0 mb 0.00 in0.0 mm 0.00 in0.0 mm 0.01 in0.3 mm
09:00 AM 36.0°F2.2°C 34.9°F1.6°C 96% 4.0 mph SW6.4 kmh SW 12.0 mph19.3 kmh 30.15 in1021.0 mb 0.00 in0.0 mm 0.00 in0.0 mm 0.01 in0.3 mm
09:05 AM 36.0°F2.2°C 34.9°F1.6°C 96% 4.0 mph SW6.4 kmh SW 12.0 mph19.3 kmh 30.15 in1021.0 mb 0.00 in0.0 mm 0.00 in0.0 mm 0.01 in0.3 mm
09:10 AM 36.0°F2.2°C 34.9°F1.6°C 96% 4.0 mph SW6.4 kmh SW 10.0 mph16.1 kmh 30.14 in1020.7 mb 0.00 in0.0 mm 0.00 in0.0 mm 0.01 in0.3 mm
09:15 AM 36.0°F2.2°C 35.1°F1.7°C 96% 5.0 mph SW8.0 kmh SW 15.0 mph24.1 kmh 30.13 in1020.3 mb 0.00 in0.0 mm 0.00 in0.0 mm 0.01 in0.3 mm
09:20 AM 36.1°F2.3°C 35.1°F1.7°C 96% 5.0 mph SW8.0 kmh SW 15.0 mph24.1 kmh 30.13 in1020.3 mb 0.00 in0.0 mm 0.00 in0.0 mm 0.01 in0.3 mm
09:25 AM 36.3°F2.4°C 35.2°F1.8°C 96% 6.0 mph SW9.7 kmh SW 14.0 mph22.5 kmh 30.13 in1020.3 mb 0.00 in0.0 mm 0.00 in0.0 mm 0.01 in0.3 mm
09:30 AM 36.3°F2.4°C 35.4°F1.9°C 96% 6.0 mph SW9.7 kmh SW 14.0 mph22.5 kmh 30.12 in1020.0 mb 0.00 in0.0 mm 0.00 in0.0 mm 0.01 in0.3 mm
09:35 AM 36.5°F2.5°C 35.4°F1.9°C 96% 5.0 mph SW8.0 kmh SW 13.0 mph20.9 kmh 30.12 in1020.0 mb 0.00 in0.0 mm 0.00 in0.0 mm 0.01 in0.3 mm
09:40 AM 36.7°F2.6°C 35.6°F2.0°C 96% 5.0 mph SW8.0 kmh SW 11.0 mph17.7 kmh 30.12 in1020.0 mb 0.00 in0.0 mm 0.00 in0.0 mm 0.01 in0.3 mm
09:45 AM 36.7°F2.6°C 35.6°F2.0°C 96% 5.0 mph SW8.0 kmh SW 12.0 mph19.3 kmh 30.12 in1020.0 mb 0.00 in0.0 mm 0.00 in0.0 mm 0.01 in0.3 mm
09:50 AM 36.9°F2.7°C 35.8°F2.1°C 96% 6.0 mph SW9.7 kmh SW 14.0 mph22.5 kmh 30.12 in1020.0 mb 0.00 in0.0 mm 0.00 in0.0 mm 0.01 in0.3 mm
09:55 AM 36.9°F2.7°C 35.8°F2.1°C 96% 6.0 mph SW9.7 kmh SW 14.0 mph22.5 kmh 30.11 in1019.6 mb 0.00 in0.0 mm 0.00 in0.0 mm 0.01 in0.3 mm
10:00 AM 36.9°F2.7°C 35.8°F2.1°C 96% 5.0 mph SW8.0 kmh SW 11.0 mph17.7 kmh 30.11 in1019.6 mb 0.00 in0.0 mm 0.00 in0.0 mm 0.01 in0.3 mm
10:05 AM 36.9°F2.7°C 35.8°F2.1°C 96% 5.0 mph SW8.0 kmh SW 11.0 mph17.7 kmh 30.11 in1019.6 mb 0.00 in0.0 mm 0.00 in0.0 mm 0.01 in0.3 mm
10:10 AM 36.9°F2.7°C 35.8°F2.1°C 96% 5.0 mph SW8.0 kmh SW 12.0 mph19.3 kmh 30.11 in1019.6 mb 0.00 in0.0 mm 0.00 in0.0 mm 0.01 in0.3 mm
10:15 AM 36.9°F2.7°C 35.8°F2.1°C 96% 6.0 mph SW9.7 kmh SW 16.0 mph25.7 kmh 30.10 in1019.3 mb 0.00 in0.0 mm 0.00 in0.0 mm 0.01 in0.3 mm
10:20 AM 36.9°F2.7°C 35.8°F2.1°C 96% 8.0 mph SW12.9 kmh SW 17.0 mph27.4 kmh 30.10 in1019.3 mb 0.00 in0.0 mm 0.00 in0.0 mm 0.01 in0.3 mm
10:25 AM 37.0°F2.8°C 36.0°F2.2°C 96% 7.0 mph SW11.3 kmh SW 17.0 mph27.4 kmh 30.10 in1019.3 mb 0.00 in0.0 mm 0.00 in0.0 mm 0.01 in0.3 mm
10:30 AM 37.0°F2.8°C 35.8°F2.1°C 95% 6.0 mph SW9.7 kmh SW 18.0 mph29.0 kmh 30.10 in1019.3 mb 0.00 in0.0 mm 0.00 in0.0 mm 0.01 in0.3 mm
10:35 AM 37.0°F2.8°C 35.8°F2.1°C 95% 7.0 mph SW11.3 kmh SW 18.0 mph29.0 kmh 30.09 in1019.0 mb 0.00 in0.0 mm 0.00 in0.0 mm 0.01 in0.3 mm
10:40 AM 37.0°F2.8°C 35.8°F2.1°C 95% 7.0 mph SW11.3 kmh SW 14.0 mph22.5 kmh 30.08 in1018.6 mb 0.00 in0.0 mm 0.00 in0.0 mm 0.01 in0.3 mm
10:45 AM 37.2°F2.9°C 36.0°F2.2°C 95% 6.0 mph SW9.7 kmh SW 14.0 mph22.5 kmh 30.08 in1018.6 mb 0.00 in0.0 mm 0.00 in0.0 mm 0.01 in0.3 mm
10:50 AM 37.4°F3.0°C 36.1°F2.3°C 95% 6.0 mph SW9.7 kmh SW 13.0 mph20.9 kmh 30.08 in1018.6 mb 0.00 in0.0 mm 0.00 in0.0 mm 0.01 in0.3 mm
10:55 AM 37.6°F3.1°C 36.1°F2.3°C 95% 7.0 mph SW11.3 kmh SW 17.0 mph27.4 kmh 30.08 in1018.6 mb 0.00 in0.0 mm 0.00 in0.0 mm 0.01 in0.3 mm
11:00 AM 37.8°F3.2°C 36.3°F2.4°C 95% 7.0 mph SW11.3 kmh SW 17.0 mph27.4 kmh 30.07 in1018.3 mb 0.00 in0.0 mm 0.00 in0.0 mm 0.01 in0.3 mm
11:05 AM 37.8°F3.2°C 36.5°F2.5°C 95% 8.0 mph SW12.9 kmh SW 15.0 mph24.1 kmh 30.07 in1018.3 mb 0.00 in0.0 mm 0.00 in0.0 mm 0.01 in0.3 mm
11:10 AM 37.8°F3.2°C 36.5°F2.5°C 95% 8.0 mph SW12.9 kmh SW 16.0 mph25.7 kmh 30.07 in1018.3 mb 0.00 in0.0 mm 0.00 in0.0 mm 0.01 in0.3 mm
11:15 AM 37.9°F3.3°C 36.7°F2.6°C 95% 8.0 mph SW12.9 kmh SW 16.0 mph25.7 kmh 30.06 in1017.9 mb 0.00 in0.0 mm 0.00 in0.0 mm 0.01 in0.3 mm
11:20 AM 37.9°F3.3°C 36.5°F2.5°C 94% 7.0 mph SW11.3 kmh SW 13.0 mph20.9 kmh 30.05 in1017.6 mb 0.00 in0.0 mm 0.00 in0.0 mm 0.01 in0.3 mm
11:25 AM 38.1°F3.4°C 36.5°F2.5°C 94% 6.0 mph SW9.7 kmh SW 13.0 mph20.9 kmh 30.05 in1017.6 mb 0.00 in0.0 mm 0.00 in0.0 mm 0.01 in0.3 mm
11:30 AM 37.9°F3.3°C 36.5°F2.5°C 94% 6.0 mph SW9.7 kmh SW 16.0 mph25.7 kmh 30.04 in1017.3 mb 0.00 in0.0 mm 0.00 in0.0 mm 0.01 in0.3 mm
11:35 AM 38.1°F3.4°C 36.5°F2.5°C 94% 7.0 mph SW11.3 kmh SW 16.0 mph25.7 kmh 30.04 in1017.3 mb 0.00 in0.0 mm 0.00 in0.0 mm 0.01 in0.3 mm
11:40 AM 38.3°F3.5°C 36.7°F2.6°C 94% 5.0 mph SW8.0 kmh SW 15.0 mph24.1 kmh 30.04 in1017.3 mb 0.00 in0.0 mm 0.00 in0.0 mm 0.01 in0.3 mm
11:45 AM 38.5°F3.6°C 36.9°F2.7°C 94% 5.0 mph SW8.0 kmh SW 15.0 mph24.1 kmh 30.03 in1016.9 mb 0.00 in0.0 mm 0.00 in0.0 mm 0.01 in0.3 mm
11:50 AM 38.7°F3.7°C 37.0°F2.8°C 94% 6.0 mph SW9.7 kmh SW 14.0 mph22.5 kmh 30.04 in1017.3 mb 0.00 in0.0 mm 0.00 in0.0 mm 0.01 in0.3 mm
11:55 AM 38.7°F3.7°C 37.0°F2.8°C 94% 6.0 mph SW9.7 kmh SW 14.0 mph22.5 kmh 30.03 in1016.9 mb 0.00 in0.0 mm 0.00 in0.0 mm 0.01 in0.3 mm
12:00 PM 38.8°F3.8°C 37.4°F3.0°C 94% 6.0 mph SW9.7 kmh SW 14.0 mph22.5 kmh 30.02 in1016.6 mb 0.00 in0.0 mm 0.00 in0.0 mm 0.01 in0.3 mm
12:05 PM 39.0°F3.9°C 37.2°F2.9°C 93% 6.0 mph SW9.7 kmh SW 13.0 mph20.9 kmh 30.01 in1016.3 mb 0.00 in0.0 mm 0.00 in0.0 mm 0.01 in0.3 mm
12:10 PM 39.4°F4.1°C 37.4°F3.0°C 93% 6.0 mph SW9.7 kmh SW 13.0 mph20.9 kmh 30.00 in1015.9 mb 0.00 in0.0 mm 0.00 in0.0 mm 0.01 in0.3 mm
12:15 PM 39.6°F4.2°C 37.6°F3.1°C 93% 6.0 mph SW9.7 kmh SW 13.0 mph20.9 kmh 30.00 in1015.9 mb 0.00 in0.0 mm 0.00 in0.0 mm 0.01 in0.3 mm
12:20 PM 39.6°F4.2°C 37.6°F3.1°C 93% 6.0 mph SW9.7 kmh SW 17.0 mph27.4 kmh 30.00 in1015.9 mb 0.00 in0.0 mm 0.00 in0.0 mm 0.01 in0.3 mm
12:25 PM 39.6°F4.2°C 37.4°F3.0°C 92% 7.0 mph SW11.3 kmh SW 17.0 mph27.4 kmh 29.99 in1015.6 mb 0.00 in0.0 mm 0.00 in0.0 mm 0.01 in0.3 mm
12:30 PM 39.6°F4.2°C 37.4°F3.0°C 92% 7.0 mph SW11.3 kmh SW 15.0 mph24.1 kmh 29.99 in1015.6 mb 0.00 in0.0 mm 0.00 in0.0 mm 0.01 in0.3 mm
12:35 PM 39.6°F4.2°C 37.4°F3.0°C 92% 7.0 mph SW11.3 kmh SW 15.0 mph24.1 kmh 29.99 in1015.6 mb 0.00 in0.0 mm 0.00 in0.0 mm 0.01 in0.3 mm
12:40 PM 39.6°F4.2°C 37.4°F3.0°C 92% 7.0 mph SW11.3 kmh SW 12.0 mph19.3 kmh 29.99 in1015.6 mb 0.00 in0.0 mm 0.00 in0.0 mm 0.01 in0.3 mm
12:45 PM 39.6°F4.2°C 37.4°F3.0°C 92% 7.0 mph SW11.3 kmh SW 15.0 mph24.1 kmh 29.99 in1015.6 mb 0.00 in0.0 mm 0.00 in0.0 mm 0.01 in0.3 mm
12:50 PM 39.6°F4.2°C 37.4°F3.0°C 92% 6.0 mph SW9.7 kmh SW 15.0 mph24.1 kmh 29.98 in1015.2 mb 0.00 in0.0 mm 0.00 in0.0 mm 0.01 in0.3 mm
12:55 PM 39.6°F4.2°C 37.4°F3.0°C 92% 6.0 mph SW9.7 kmh SW 14.0 mph22.5 kmh 29.98 in1015.2 mb 0.00 in0.0 mm 0.00 in0.0 mm 0.01 in0.3 mm
01:00 PM 39.6°F4.2°C 37.4°F3.0°C 92% 5.0 mph SW8.0 kmh SW 17.0 mph27.4 kmh 29.98 in1015.2 mb 0.00 in0.0 mm 0.00 in0.0 mm 0.01 in0.3 mm
01:05 PM 39.6°F4.2°C 37.4°F3.0°C 92% 6.0 mph SW9.7 kmh SW 17.0 mph27.4 kmh 29.97 in1014.9 mb 0.00 in0.0 mm 0.00 in0.0 mm 0.01 in0.3 mm
01:10 PM 39.6°F4.2°C 37.6°F3.1°C 93% 6.0 mph SW9.7 kmh SW 13.0 mph20.9 kmh 29.97 in1014.9 mb 0.00 in0.0 mm 0.00 in0.0 mm 0.01 in0.3 mm
01:15 PM 39.6°F4.2°C 37.8°F3.2°C 93% 5.0 mph SW8.0 kmh SW 13.0 mph20.9 kmh 29.97 in1014.9 mb 0.00 in0.0 mm 0.00 in0.0 mm 0.01 in0.3 mm
01:20 PM 39.6°F4.2°C 37.6°F3.1°C 93% 6.0 mph WSW9.7 kmh WSW 14.0 mph22.5 kmh 29.97 in1014.9 mb 0.00 in0.0 mm 0.00 in0.0 mm 0.01 in0.3 mm
01:25 PM 39.6°F4.2°C 37.6°F3.1°C 93% 6.0 mph SW9.7 kmh SW 14.0 mph22.5 kmh 29.96 in1014.6 mb 0.00 in0.0 mm 0.00 in0.0 mm 0.01 in0.3 mm
01:30 PM 39.4°F4.1°C 37.8°F3.2°C 94% 6.0 mph SW9.7 kmh SW 19.0 mph30.6 kmh 29.96 in1014.6 mb 0.00 in0.0 mm 0.00 in0.0 mm 0.01 in0.3 mm
01:35 PM 39.4°F4.1°C 37.8°F3.2°C 94% 7.0 mph SW11.3 kmh SW 19.0 mph30.6 kmh 29.96 in1014.6 mb 0.00 in0.0 mm 0.00 in0.0 mm 0.01 in0.3 mm
01:40 PM 39.4°F4.1°C 37.8°F3.2°C 94% 8.0 mph SW12.9 kmh SW 18.0 mph29.0 kmh 29.96 in1014.6 mb 0.00 in0.0 mm 0.00 in0.0 mm 0.01 in0.3 mm
01:45 PM 39.4°F4.1°C 37.8°F3.2°C 94% 7.0 mph SW11.3 kmh SW 15.0 mph24.1 kmh 29.95 in1014.2 mb 0.00 in0.0 mm 0.00 in0.0 mm 0.01 in0.3 mm
01:50 PM 39.4°F4.1°C 37.9°F3.3°C 95% 6.0 mph SW9.7 kmh SW 15.0 mph24.1 kmh 29.95 in1014.2 mb 0.00 in0.0 mm 0.00 in0.0 mm 0.01 in0.3 mm
01:55 PM 39.4°F4.1°C 37.9°F3.3°C 95% 6.0 mph SW9.7 kmh SW 13.0 mph20.9 kmh 29.95 in1014.2 mb 0.00 in0.0 mm 0.00 in0.0 mm 0.01 in0.3 mm
02:00 PM 39.4°F4.1°C 37.9°F3.3°C 95% 7.0 mph SW11.3 kmh SW 19.0 mph30.6 kmh 29.95 in1014.2 mb 0.01 in0.3 mm 0.01 in0.3 mm 0.02 in0.5 mm
02:05 PM 39.4°F4.1°C 37.9°F3.3°C 95% 7.0 mph SW11.3 kmh SW 19.0 mph30.6 kmh 29.94 in1013.9 mb 0.01 in0.3 mm 0.00 in0.0 mm 0.02 in0.5 mm
02:10 PM 39.4°F4.1°C 38.1°F3.4°C 95% 7.0 mph SW11.3 kmh SW 14.0 mph22.5 kmh 29.94 in1013.9 mb 0.01 in0.3 mm 0.00 in0.0 mm 0.02 in0.5 mm
02:15 PM 39.4°F4.1°C 38.1°F3.4°C 95% 5.0 mph SW8.0 kmh SW 14.0 mph22.5 kmh 29.94 in1013.9 mb 0.01 in0.3 mm 0.00 in0.0 mm 0.02 in0.5 mm
02:20 PM 39.6°F4.2°C 38.1°F3.4°C 95% 4.0 mph SW6.4 kmh SW 13.0 mph20.9 kmh 29.93 in1013.5 mb 0.01 in0.3 mm 0.00 in0.0 mm 0.02 in0.5 mm
02:25 PM 39.6°F4.2°C 38.3°F3.5°C 95% 6.0 mph SW9.7 kmh SW 16.0 mph25.7 kmh 29.93 in1013.5 mb 0.01 in0.3 mm 0.00 in0.0 mm 0.02 in0.5 mm
02:30 PM 39.6°F4.2°C 38.3°F3.5°C 95% 7.0 mph SW11.3 kmh SW 16.0 mph25.7 kmh 29.93 in1013.5 mb 0.01 in0.3 mm 0.00 in0.0 mm 0.02 in0.5 mm
02:35 PM 39.7°F4.3°C 38.3°F3.5°C 95% 7.0 mph SW11.3 kmh SW 15.0 mph24.1 kmh 29.93 in1013.5 mb 0.01 in0.3 mm 0.00 in0.0 mm 0.02 in0.5 mm
02:40 PM 39.7°F4.3°C 38.3°F3.5°C 95% 6.0 mph SW9.7 kmh SW 15.0 mph24.1 kmh 29.92 in1013.2 mb 0.01 in0.3 mm 0.00 in0.0 mm 0.02 in0.5 mm
02:45 PM 39.7°F4.3°C 38.3°F3.5°C 95% 6.0 mph SW9.7 kmh SW 16.0 mph25.7 kmh 29.92 in1013.2 mb 0.01 in0.3 mm 0.00 in0.0 mm 0.02 in0.5 mm
02:50 PM 39.7°F4.3°C 38.7°F3.7°C 96% 7.0 mph SW11.3 kmh SW 16.0 mph25.7 kmh 29.92 in1013.2 mb 0.01 in0.3 mm 0.00 in0.0 mm 0.02 in0.5 mm
02:55 PM 39.7°F4.3°C 38.8°F3.8°C 96% 7.0 mph SW11.3 kmh SW 16.0 mph25.7 kmh 29.91 in1012.9 mb 0.01 in0.3 mm 0.00 in0.0 mm 0.02 in0.5 mm
03:00 PM 39.7°F4.3°C 38.8°F3.8°C 96% 7.0 mph SW11.3 kmh SW 16.0 mph25.7 kmh 29.91 in1012.9 mb 0.00 in0.0 mm 0.00 in0.0 mm 0.02 in0.5 mm
03:05 PM 39.7°F4.3°C 38.8°F3.8°C 96% 6.0 mph SW9.7 kmh SW 16.0 mph25.7 kmh 29.91 in1012.9 mb 0.00 in0.0 mm 0.00 in0.0 mm 0.02 in0.5 mm
03:10 PM 39.9°F4.4°C 38.8°F3.8°C 96% 6.0 mph SW9.7 kmh SW 14.0 mph22.5 kmh 29.91 in1012.9 mb 0.01 in0.3 mm 0.12 in3.0 mm 0.02 in0.5 mm
03:15 PM 39.9°F4.4°C 38.8°F3.8°C 96% 6.0 mph SW9.7 kmh SW 14.0 mph22.5 kmh 29.91 in1012.9 mb 0.01 in0.3 mm 0.00 in0.0 mm 0.02 in0.5 mm
03:20 PM 39.9°F4.4°C 39.0°F3.9°C 96% 6.0 mph SW9.7 kmh SW 13.0 mph20.9 kmh 29.91 in1012.9 mb 0.02 in0.5 mm 0.12 in3.0 mm 0.03 in0.8 mm
03:25 PM 39.9°F4.4°C 39.0°F3.9°C 96% 7.0 mph SW11.3 kmh SW 19.0 mph30.6 kmh 29.90 in1012.5 mb 0.02 in0.5 mm 0.00 in0.0 mm 0.03 in0.8 mm
03:30 PM 40.1°F4.5°C 39.0°F3.9°C 96% 8.0 mph SW12.9 kmh SW 19.0 mph30.6 kmh 29.90 in1012.5 mb 0.02 in0.5 mm 0.00 in0.0 mm 0.04 in1.0 mm
03:35 PM 40.1°F4.5°C 39.0°F3.9°C 96% 7.0 mph SW11.3 kmh SW 14.0 mph22.5 kmh 29.90 in1012.5 mb 0.02 in0.5 mm 0.00 in0.0 mm 0.04 in1.0 mm
03:40 PM 40.3°F4.6°C 39.2°F4.0°C 96% 5.0 mph SW8.0 kmh SW 13.0 mph20.9 kmh 29.90 in1012.5 mb 0.02 in0.5 mm 0.00 in0.0 mm 0.04 in1.0 mm
03:45 PM 40.3°F4.6°C 39.2°F4.0°C 96% 4.0 mph SW6.4 kmh SW 13.0 mph20.9 kmh 29.91 in1012.9 mb 0.03 in0.8 mm 0.12 in3.0 mm 0.05 in1.3 mm
03:50 PM 40.3°F4.6°C 39.2°F4.0°C 96% 5.0 mph SW8.0 kmh SW 14.0 mph22.5 kmh 29.90 in1012.5 mb 0.03 in0.8 mm 0.00 in0.0 mm 0.05 in1.3 mm
03:55 PM 40.3°F4.6°C 39.2°F4.0°C 96% 6.0 mph SW9.7 kmh SW 15.0 mph24.1 kmh 29.90 in1012.5 mb 0.04 in1.0 mm 0.12 in3.0 mm 0.06 in1.5 mm
04:00 PM 40.3°F4.6°C 39.2°F4.0°C 96% 7.0 mph SW11.3 kmh SW 16.0 mph25.7 kmh 29.89 in1012.2 mb 0.04 in1.0 mm 0.00 in0.0 mm 0.06 in1.5 mm
04:05 PM 40.5°F4.7°C 39.4°F4.1°C 96% 8.0 mph SW12.9 kmh SW 17.0 mph27.4 kmh 29.89 in1012.2 mb 0.04 in1.0 mm 0.00 in0.0 mm 0.06 in1.5 mm
04:10 PM 40.5°F4.7°C 39.4°F4.1°C 96% 5.0 mph SW8.0 kmh SW 17.0 mph27.4 kmh 29.89 in1012.2 mb 0.03 in0.8 mm 0.00 in0.0 mm 0.06 in1.5 mm
04:15 PM 40.5°F4.7°C 39.4°F4.1°C 96% 4.0 mph WSW6.4 kmh WSW 13.0 mph20.9 kmh 29.89 in1012.2 mb 0.03 in0.8 mm 0.00 in0.0 mm 0.06 in1.5 mm
04:20 PM 40.5°F4.7°C 39.4°F4.1°C 96% 5.0 mph WSW8.0 kmh WSW 13.0 mph20.9 kmh 29.89 in1012.2 mb 0.03 in0.8 mm 0.00 in0.0 mm 0.06 in1.5 mm
04:25 PM 40.5°F4.7°C 39.4°F4.1°C 96% 5.0 mph SW8.0 kmh SW 11.0 mph17.7 kmh 29.89 in1012.2 mb 0.03 in0.8 mm 0.00 in0.0 mm 0.06 in1.5 mm
04:30 PM 40.5°F4.7°C 39.4°F4.1°C 96% 5.0 mph SW8.0 kmh SW 11.0 mph17.7 kmh 29.89 in1012.2 mb 0.02 in0.5 mm 0.00 in0.0 mm 0.06 in1.5 mm
04:35 PM 40.5°F4.7°C 39.4°F4.1°C 96% 4.0 mph SW6.4 kmh SW 11.0 mph17.7 kmh 29.89 in1012.2 mb 0.02 in0.5 mm 0.00 in0.0 mm 0.06 in1.5 mm
04:40 PM 40.5°F4.7°C 39.4°F4.1°C 96% 4.0 mph SW6.4 kmh SW 9.0 mph14.5 kmh 29.89 in1012.2 mb 0.02 in0.5 mm 0.00 in0.0 mm 0.06 in1.5 mm
04:45 PM 40.6°F4.8°C 39.6°F4.2°C 96% 3.0 mph WSW4.8 kmh WSW 8.0 mph12.9 kmh 29.89 in1012.2 mb 0.02 in0.5 mm 0.00 in0.0 mm 0.06 in1.5 mm
04:50 PM 40.6°F4.8°C 39.7°F4.3°C 97% 4.0 mph SW6.4 kmh SW 14.0 mph22.5 kmh 29.88 in1011.9 mb 0.02 in0.5 mm 0.00 in0.0 mm 0.06 in1.5 mm
04:55 PM 40.6°F4.8°C 39.6°F4.2°C 96% 5.0 mph SW8.0 kmh SW 14.0 mph22.5 kmh 29.88 in1011.9 mb 0.01 in0.3 mm 0.00 in0.0 mm 0.06 in1.5 mm
05:00 PM 40.6°F4.8°C 39.6°F4.2°C 96% 5.0 mph SW8.0 kmh SW 14.0 mph22.5 kmh 29.88 in1011.9 mb 0.01 in0.3 mm 0.00 in0.0 mm 0.06 in1.5 mm
05:05 PM 40.6°F4.8°C 39.6°F4.2°C 96% 5.0 mph SW8.0 kmh SW 14.0 mph22.5 kmh 29.88 in1011.9 mb 0.02 in0.5 mm 0.12 in3.0 mm 0.07 in1.8 mm
05:10 PM 40.8°F4.9°C 39.7°F4.3°C 96% 4.0 mph SW6.4 kmh SW 13.0 mph20.9 kmh 29.88 in1011.9 mb 0.02 in0.5 mm 0.00 in0.0 mm 0.07 in1.8 mm
05:15 PM 40.8°F4.9°C 39.7°F4.3°C 96% 3.0 mph WSW4.8 kmh WSW 11.0 mph17.7 kmh 29.88 in1011.9 mb 0.02 in0.5 mm 0.00 in0.0 mm 0.07 in1.8 mm
05:20 PM 40.8°F4.9°C 39.7°F4.3°C 96% 4.0 mph SW6.4 kmh SW 12.0 mph19.3 kmh 29.87 in1011.5 mb 0.01 in0.3 mm 0.00 in0.0 mm 0.07 in1.8 mm
05:25 PM 40.8°F4.9°C 39.9°F4.4°C 96% 5.0 mph SW8.0 kmh SW 13.0 mph20.9 kmh 29.87 in1011.5 mb 0.01 in0.3 mm 0.00 in0.0 mm 0.07 in1.8 mm
05:30 PM 40.8°F4.9°C 39.9°F4.4°C 96% 4.0 mph SW6.4 kmh SW 13.0 mph20.9 kmh 29.87 in1011.5 mb 0.02 in0.5 mm 0.12 in3.0 mm 0.08 in2.0 mm
05:35 PM 40.8°F4.9°C 39.9°F4.4°C 96% 4.0 mph WSW6.4 kmh WSW 16.0 mph25.7 kmh 29.87 in1011.5 mb 0.02 in0.5 mm 0.00 in0.0 mm 0.08 in2.0 mm
05:40 PM 41.0°F5.0°C 39.9°F4.4°C 96% 4.0 mph WSW6.4 kmh WSW 16.0 mph25.7 kmh 29.87 in1011.5 mb 0.02 in0.5 mm 0.00 in0.0 mm 0.08 in2.0 mm
05:45 PM 40.8°F4.9°C 39.9°F4.4°C 96% 4.0 mph WSW6.4 kmh WSW 13.0 mph20.9 kmh 29.87 in1011.5 mb 0.02 in0.5 mm 0.00 in0.0 mm 0.08 in2.0 mm
05:50 PM 40.8°F4.9°C 39.9°F4.4°C 96% 3.0 mph SW4.8 kmh SW 20.0 mph32.2 kmh 29.87 in1011.5 mb 0.02 in0.5 mm 0.00 in0.0 mm 0.08 in2.0 mm
05:55 PM 40.8°F4.9°C 39.9°F4.4°C 96% 5.0 mph WSW8.0 kmh WSW 20.0 mph32.2 kmh 29.87 in1011.5 mb 0.02 in0.5 mm 0.00 in0.0 mm 0.08 in2.0 mm
06:00 PM 40.8°F4.9°C 39.9°F4.4°C 96% 4.0 mph WSW6.4 kmh WSW 12.0 mph19.3 kmh 29.87 in1011.5 mb 0.02 in0.5 mm 0.00 in0.0 mm 0.08 in2.0 mm
06:05 PM 41.0°F5.0°C 39.9°F4.4°C 96% 3.0 mph WSW4.8 kmh WSW 12.0 mph19.3 kmh 29.87 in1011.5 mb 0.01 in0.3 mm 0.00 in0.0 mm 0.08 in2.0 mm
06:10 PM 41.0°F5.0°C 39.9°F4.4°C 96% 3.0 mph WSW4.8 kmh WSW 10.0 mph16.1 kmh 29.87 in1011.5 mb 0.02 in0.5 mm 0.12 in3.0 mm 0.09 in2.3 mm
06:15 PM 41.0°F5.0°C 39.9°F4.4°C 96% 2.0 mph WSW3.2 kmh WSW 13.0 mph20.9 kmh 29.87 in1011.5 mb 0.04 in1.0 mm 0.24 in6.1 mm 0.11 in2.8 mm
06:20 PM 41.0°F5.0°C 39.9°F4.4°C 96% 3.0 mph WSW4.8 kmh WSW 13.0 mph20.9 kmh 29.87 in1011.5 mb 0.04 in1.0 mm 0.00 in0.0 mm 0.11 in2.8 mm
06:25 PM 41.0°F5.0°C 39.9°F4.4°C 96% 3.0 mph WSW4.8 kmh WSW 11.0 mph17.7 kmh 29.87 in1011.5 mb 0.05 in1.3 mm 0.12 in3.0 mm 0.12 in3.0 mm
06:30 PM 40.8°F4.9°C 39.7°F4.3°C 96% 3.0 mph WSW4.8 kmh WSW 10.0 mph16.1 kmh 29.87 in1011.5 mb 0.04 in1.0 mm 0.00 in0.0 mm 0.12 in3.0 mm
06:35 PM 40.8°F4.9°C 39.7°F4.3°C 96% 3.0 mph WSW4.8 kmh WSW 10.0 mph16.1 kmh 29.87 in1011.5 mb 0.05 in1.3 mm 0.12 in3.0 mm 0.13 in3.3 mm
06:40 PM 40.6°F4.8°C 39.6°F4.2°C 96% 3.0 mph W4.8 kmh W 13.0 mph20.9 kmh 29.87 in1011.5 mb 0.05 in1.3 mm 0.00 in0.0 mm 0.13 in3.3 mm
06:45 PM 40.3°F4.6°C 38.8°F3.8°C 95% 3.0 mph W4.8 kmh W 13.0 mph20.9 kmh 29.87 in1011.5 mb 0.05 in1.3 mm 0.00 in0.0 mm 0.13 in3.3 mm
06:50 PM 39.7°F4.3°C 38.5°F3.6°C 95% 3.0 mph W4.8 kmh W 12.0 mph19.3 kmh 29.87 in1011.5 mb 0.05 in1.3 mm 0.00 in0.0 mm 0.13 in3.3 mm
06:55 PM 39.6°F4.2°C 38.1°F3.4°C 95% 3.0 mph WNW4.8 kmh WNW 13.0 mph20.9 kmh 29.86 in1011.2 mb 0.05 in1.3 mm 0.00 in0.0 mm 0.13 in3.3 mm
07:00 PM 39.4°F4.1°C 37.9°F3.3°C 95% 3.0 mph WNW4.8 kmh WNW 13.0 mph20.9 kmh 29.86 in1011.2 mb 0.05 in1.3 mm 0.00 in0.0 mm 0.13 in3.3 mm
07:05 PM 39.2°F4.0°C 37.6°F3.1°C 94% 2.0 mph WNW3.2 kmh WNW 9.0 mph14.5 kmh 29.86 in1011.2 mb 0.05 in1.3 mm 0.00 in0.0 mm 0.13 in3.3 mm
07:10 PM 39.0°F3.9°C 37.8°F3.2°C 95% 2.0 mph WNW3.2 kmh WNW 9.0 mph14.5 kmh 29.86 in1011.2 mb 0.04 in1.0 mm 0.00 in0.0 mm 0.13 in3.3 mm
07:15 PM 39.0°F3.9°C 37.8°F3.2°C 95% 2.0 mph WNW3.2 kmh WNW 9.0 mph14.5 kmh 29.86 in1011.2 mb 0.02 in0.5 mm 0.00 in0.0 mm 0.13 in3.3 mm
07:20 PM 39.0°F3.9°C 37.8°F3.2°C 95% 2.0 mph W3.2 kmh W 8.0 mph12.9 kmh 29.86 in1011.2 mb 0.01 in0.3 mm 0.00 in0.0 mm 0.13 in3.3 mm
07:25 PM 38.8°F3.8°C 37.6°F3.1°C 95% 1.0 mph WNW1.6 kmh WNW 7.0 mph11.3 kmh 29.86 in1011.2 mb 0.01 in0.3 mm 0.00 in0.0 mm 0.13 in3.3 mm
07:30 PM 38.7°F3.7°C 37.4°F3.0°C 95% 1.0 mph W1.6 kmh W 6.0 mph9.7 kmh 29.86 in1011.2 mb 0.01 in0.3 mm 0.00 in0.0 mm 0.13 in3.3 mm
07:35 PM 38.7°F3.7°C 37.4°F3.0°C 95% 1.0 mph W1.6 kmh W 7.0 mph11.3 kmh 29.86 in1011.2 mb 0.00 in0.0 mm 0.00 in0.0 mm 0.13 in3.3 mm
07:40 PM 38.8°F3.8°C 37.6°F3.1°C 95% 2.0 mph WNW3.2 kmh WNW 8.0 mph12.9 kmh 29.85 in1010.8 mb 0.00 in0.0 mm 0.00 in0.0 mm 0.13 in3.3 mm
07:45 PM 38.8°F3.8°C 37.6°F3.1°C 95% 2.0 mph NW3.2 kmh NW 8.0 mph12.9 kmh 29.85 in1010.8 mb 0.00 in0.0 mm 0.00 in0.0 mm 0.13 in3.3 mm
07:50 PM 39.0°F3.9°C 37.8°F3.2°C 95% 2.0 mph WNW3.2 kmh WNW 9.0 mph14.5 kmh 29.85 in1010.8 mb 0.00 in0.0 mm 0.00 in0.0 mm 0.13 in3.3 mm
07:55 PM 38.8°F3.8°C 37.6°F3.1°C 95% 2.0 mph W3.2 kmh W 9.0 mph14.5 kmh 29.85 in1010.8 mb 0.00 in0.0 mm 0.00 in0.0 mm 0.13 in3.3 mm
08:00 PM 38.8°F3.8°C 37.6°F3.1°C 95% 2.0 mph W3.2 kmh W 9.0 mph14.5 kmh 29.85 in1010.8 mb 0.00 in0.0 mm 0.00 in0.0 mm 0.13 in3.3 mm
08:05 PM 38.8°F3.8°C 37.6°F3.1°C 95% 2.0 mph WNW3.2 kmh WNW 12.0 mph19.3 kmh 29.85 in1010.8 mb 0.00 in0.0 mm 0.00 in0.0 mm 0.13 in3.3 mm
08:10 PM 38.7°F3.7°C 37.0°F2.8°C 94% 3.0 mph NW4.8 kmh NW 12.0 mph19.3 kmh 29.84 in1010.5 mb 0.00 in0.0 mm 0.00 in0.0 mm 0.13 in3.3 mm
08:15 PM 38.7°F3.7°C 37.0°F2.8°C 94% 3.0 mph NW4.8 kmh NW 11.0 mph17.7 kmh 29.84 in1010.5 mb 0.00 in0.0 mm 0.00 in0.0 mm 0.13 in3.3 mm
08:20 PM 38.8°F3.8°C 36.9°F2.7°C 93% 3.0 mph WNW4.8 kmh WNW 13.0 mph20.9 kmh 29.84 in1010.5 mb 0.00 in0.0 mm 0.00 in0.0 mm 0.13 in3.3 mm
08:25 PM 38.7°F3.7°C 36.9°F2.7°C 93% 3.0 mph NW4.8 kmh NW 13.0 mph20.9 kmh 29.84 in1010.5 mb 0.00 in0.0 mm 0.00 in0.0 mm 0.13 in3.3 mm
08:30 PM 38.8°F3.8°C 36.7°F2.6°C 92% 2.0 mph WNW3.2 kmh WNW 12.0 mph19.3 kmh 29.84 in1010.5 mb 0.00 in0.0 mm 0.00 in0.0 mm 0.13 in3.3 mm
08:35 PM 38.8°F3.8°C 36.9°F2.7°C 92% 2.0 mph WNW3.2 kmh WNW 6.0 mph9.7 kmh 29.84 in1010.5 mb 0.00 in0.0 mm 0.00 in0.0 mm 0.13 in3.3 mm
08:40 PM 39.0°F3.9°C 36.9°F2.7°C 92% 2.0 mph W3.2 kmh W 7.0 mph11.3 kmh 29.84 in1010.5 mb 0.00 in0.0 mm 0.00 in0.0 mm 0.13 in3.3 mm
08:45 PM 39.0°F3.9°C 37.0°F2.8°C 92% 3.0 mph W4.8 kmh W 10.0 mph16.1 kmh 29.83 in1010.2 mb 0.00 in0.0 mm 0.00 in0.0 mm 0.13 in3.3 mm
08:50 PM 39.2°F4.0°C 37.0°F2.8°C 92% 3.0 mph WNW4.8 kmh WNW 10.0 mph16.1 kmh 29.84 in1010.5 mb 0.00 in0.0 mm 0.00 in0.0 mm 0.13 in3.3 mm
08:55 PM 39.2°F4.0°C 37.0°F2.8°C 92% 3.0 mph WNW4.8 kmh WNW 10.0 mph16.1 kmh 29.83 in1010.2 mb 0.00 in0.0 mm 0.00 in0.0 mm 0.13 in3.3 mm
09:00 PM 39.0°F3.9°C 36.7°F2.6°C 91% 2.0 mph WNW3.2 kmh WNW 9.0 mph14.5 kmh 29.83 in1010.2 mb 0.00 in0.0 mm 0.00 in0.0 mm 0.13 in3.3 mm
09:05 PM 39.0°F3.9°C 36.7°F2.6°C 91% 3.0 mph WNW4.8 kmh WNW 9.0 mph14.5 kmh 29.82 in1009.8 mb 0.00 in0.0 mm 0.00 in0.0 mm 0.13 in3.3 mm
09:10 PM 38.8°F3.8°C 36.5°F2.5°C 91% 3.0 mph W4.8 kmh W 9.0 mph14.5 kmh 29.82 in1009.8 mb 0.00 in0.0 mm 0.00 in0.0 mm 0.13 in3.3 mm
09:15 PM 39.0°F3.9°C 36.7°F2.6°C 91% 3.0 mph W4.8 kmh W 13.0 mph20.9 kmh 29.82 in1009.8 mb 0.00 in0.0 mm 0.00 in0.0 mm 0.13 in3.3 mm
09:20 PM 39.0°F3.9°C 36.7°F2.6°C 91% 3.0 mph W4.8 kmh W 13.0 mph20.9 kmh 29.82 in1009.8 mb 0.00 in0.0 mm 0.00 in0.0 mm 0.13 in3.3 mm
09:25 PM 39.0°F3.9°C 36.5°F2.5°C 90% 4.0 mph WNW6.4 kmh WNW 9.0 mph14.5 kmh 29.82 in1009.8 mb 0.00 in0.0 mm 0.00 in0.0 mm 0.13 in3.3 mm
09:30 PM 39.0°F3.9°C 36.3°F2.4°C 90% 3.0 mph WNW4.8 kmh WNW 8.0 mph12.9 kmh 29.82 in1009.8 mb 0.00 in0.0 mm 0.00 in0.0 mm 0.13 in3.3 mm
09:35 PM 38.8°F3.8°C 36.1°F2.3°C 90% 2.0 mph WNW3.2 kmh WNW 10.0 mph16.1 kmh 29.82 in1009.8 mb 0.00 in0.0 mm 0.00 in0.0 mm 0.13 in3.3 mm
09:40 PM 38.8°F3.8°C 36.1°F2.3°C 90% 3.0 mph W4.8 kmh W 11.0 mph17.7 kmh 29.81 in1009.5 mb 0.00 in0.0 mm 0.00 in0.0 mm 0.13 in3.3 mm
09:45 PM 38.8°F3.8°C 36.1°F2.3°C 90% 3.0 mph WNW4.8 kmh WNW 12.0 mph19.3 kmh 29.81 in1009.5 mb 0.00 in0.0 mm 0.00 in0.0 mm 0.13 in3.3 mm
09:50 PM 38.8°F3.8°C 36.0°F2.2°C 89% 3.0 mph NW4.8 kmh NW 12.0 mph19.3 kmh 29.82 in1009.8 mb 0.00 in0.0 mm 0.00 in0.0 mm 0.13 in3.3 mm
09:55 PM 38.7°F3.7°C 35.8°F2.1°C 89% 4.0 mph WNW6.4 kmh WNW 18.0 mph29.0 kmh 29.82 in1009.8 mb 0.00 in0.0 mm 0.00 in0.0 mm 0.13 in3.3 mm
10:00 PM 38.5°F3.6°C 35.2°F1.8°C 88% 5.0 mph WNW8.0 kmh WNW 18.0 mph29.0 kmh 29.82 in1009.8 mb 0.00 in0.0 mm 0.00 in0.0 mm 0.13 in3.3 mm
10:05 PM 38.1°F3.4°C 34.7°F1.5°C 87% 6.0 mph WNW9.7 kmh WNW 18.0 mph29.0 kmh 29.82 in1009.8 mb 0.00 in0.0 mm 0.00 in0.0 mm 0.13 in3.3 mm
10:10 PM 37.8°F3.2°C 34.5°F1.4°C 88% 4.0 mph WNW6.4 kmh WNW 16.0 mph25.7 kmh 29.81 in1009.5 mb 0.00 in0.0 mm 0.00 in0.0 mm 0.13 in3.3 mm
10:15 PM 37.4°F3.0°C 34.2°F1.2°C 88% 4.0 mph WNW6.4 kmh WNW 12.0 mph19.3 kmh 29.81 in1009.5 mb 0.00 in0.0 mm 0.00 in0.0 mm 0.13 in3.3 mm
10:20 PM 37.2°F2.9°C 34.3°F1.3°C 89% 4.0 mph WNW6.4 kmh WNW 12.0 mph19.3 kmh 29.81 in1009.5 mb 0.00 in0.0 mm 0.00 in0.0 mm 0.13 in3.3 mm
10:25 PM 37.2°F2.9°C 34.3°F1.3°C 89% 4.0 mph WNW6.4 kmh WNW 11.0 mph17.7 kmh 29.81 in1009.5 mb 0.00 in0.0 mm 0.00 in0.0 mm 0.13 in3.3 mm
10:30 PM 37.0°F2.8°C 34.2°F1.2°C 89% 3.0 mph WNW4.8 kmh WNW 14.0 mph22.5 kmh 29.80 in1009.1 mb 0.00 in0.0 mm 0.00 in0.0 mm 0.13 in3.3 mm
10:35 PM 37.0°F2.8°C 34.2°F1.2°C 89% 3.0 mph W4.8 kmh W 14.0 mph22.5 kmh 29.80 in1009.1 mb 0.00 in0.0 mm 0.00 in0.0 mm 0.13 in3.3 mm
10:40 PM 37.2°F2.9°C 34.3°F1.3°C 89% 4.0 mph W6.4 kmh W 14.0 mph22.5 kmh 29.80 in1009.1 mb 0.00 in0.0 mm 0.00 in0.0 mm 0.13 in3.3 mm
10:45 PM 37.2°F2.9°C 34.3°F1.3°C 89% 3.0 mph WNW4.8 kmh WNW 12.0 mph19.3 kmh 29.80 in1009.1 mb 0.00 in0.0 mm 0.00 in0.0 mm 0.13 in3.3 mm
10:50 PM 37.2°F2.9°C 34.2°F1.2°C 88% 4.0 mph W6.4 kmh W 22.0 mph35.4 kmh 29.80 in1009.1 mb 0.00 in0.0 mm 0.00 in0.0 mm 0.13 in3.3 mm
10:55 PM 37.2°F2.9°C 34.2°F1.2°C 88% 4.0 mph W6.4 kmh W 22.0 mph35.4 kmh 29.80 in1009.1 mb 0.00 in0.0 mm 0.00 in0.0 mm 0.13 in3.3 mm
11:00 PM 36.9°F2.7°C 34.0°F1.1°C 89% 4.0 mph WNW6.4 kmh WNW 12.0 mph19.3 kmh 29.80 in1009.1 mb 0.00 in0.0 mm 0.00 in0.0 mm 0.13 in3.3 mm
11:05 PM 36.7°F2.6°C 33.6°F0.9°C 89% 4.0 mph W6.4 kmh W 12.0 mph19.3 kmh 29.80 in1009.1 mb 0.00 in0.0 mm 0.00 in0.0 mm 0.13 in3.3 mm
11:10 PM 36.3°F2.4°C 33.6°F0.9°C 90% 4.0 mph WSW6.4 kmh WSW 11.0 mph17.7 kmh 29.80 in1009.1 mb 0.00 in0.0 mm 0.00 in0.0 mm 0.13 in3.3 mm
11:15 PM 36.0°F2.2°C 33.6°F0.9°C 91% 4.0 mph WSW6.4 kmh WSW 9.0 mph14.5 kmh 29.79 in1008.8 mb 0.00 in0.0 mm 0.00 in0.0 mm 0.13 in3.3 mm
11:20 PM 35.8°F2.1°C 33.4°F0.8°C 91% 3.0 mph W4.8 kmh W 9.0 mph14.5 kmh 29.79 in1008.8 mb 0.00 in0.0 mm 0.00 in0.0 mm 0.13 in3.3 mm
11:25 PM 35.6°F2.0°C 33.3°F0.7°C 91% 2.0 mph W3.2 kmh W 11.0 mph17.7 kmh 29.79 in1008.8 mb 0.00 in0.0 mm 0.00 in0.0 mm 0.13 in3.3 mm
11:30 PM 35.4°F1.9°C 33.1°F0.6°C 91% 3.0 mph W4.8 kmh W 11.0 mph17.7 kmh 29.79 in1008.8 mb 0.00 in0.0 mm 0.00 in0.0 mm 0.13 in3.3 mm
11:35 PM 35.2°F1.8°C 32.9°F0.5°C 91% 2.0 mph WNW3.2 kmh WNW 9.0 mph14.5 kmh 29.79 in1008.8 mb 0.00 in0.0 mm 0.00 in0.0 mm 0.13 in3.3 mm
11:40 PM 35.2°F1.8°C 32.9°F0.5°C 91% 2.0 mph WNW3.2 kmh WNW 12.0 mph19.3 kmh 29.79 in1008.8 mb 0.00 in0.0 mm 0.00 in0.0 mm 0.13 in3.3 mm
11:45 PM 35.1°F1.7°C 32.7°F0.4°C 91% 2.0 mph W3.2 kmh W 12.0 mph19.3 kmh 29.79 in1008.8 mb 0.00 in0.0 mm 0.00 in0.0 mm 0.13 in3.3 mm
11:50 PM 35.1°F1.7°C 32.7°F0.4°C 91% 3.0 mph W4.8 kmh W 10.0 mph16.1 kmh 29.79 in1008.8 mb 0.00 in0.0 mm 0.00 in0.0 mm 0.13 in3.3 mm
11:55 PM 35.2°F1.8°C 32.9°F0.5°C 91% 4.0 mph W6.4 kmh W 16.0 mph25.7 kmh 29.79 in1008.8 mb 0.00 in0.0 mm 0.00 in0.0 mm 0.13 in3.3 mm